SCOT36 YBOK-YBOK
Flight info
| Callsign | SCOT36 |
|---|---|
| Flight time | 0h 6m |
| Altitude | 2500 |
| Route | DCT OK OK DCT |
| Aircraft | EC35/L-VGD/C |
Departure
| Time | 2026-04-25 04:42 |
|---|---|
| Airport | Oakey Army Aviation Centre (YBOK) |
Arrival
| Time | 2026-04-25 04:48 |
|---|---|
| Airport | Oakey Army Aviation Centre (YBOK) |
| Time | Latitude | Longitude | Altitude | Speed | Heading |
|---|---|---|---|---|---|
| 2026-04-25 04:03 | -27.41370 | 151.73397 | 1333 ft | 0 kts | 100° |
| 2026-04-25 04:28 | -27.41289 | 151.73402 | 1333 ft | 0 kts | 97° |
| 2026-04-25 04:37 | -27.41290 | 151.73403 | 1335 ft | 3 kts | 97° |
| 2026-04-25 04:37 | -27.41291 | 151.73416 | 1336 ft | 7 kts | 99° |
| 2026-04-25 04:38 | -27.41267 | 151.73453 | 1334 ft | 6 kts | 9° |
| 2026-04-25 04:38 | -27.41218 | 151.73420 | 1336 ft | 15 kts | 291° |
| 2026-04-25 04:38 | -27.41194 | 151.73275 | 1342 ft | 25 kts | 283° |
| 2026-04-25 04:38 | -27.41163 | 151.73058 | 1345 ft | 29 kts | 283° |
| 2026-04-25 04:39 | -27.41129 | 151.72840 | 1341 ft | 26 kts | 289° |
| 2026-04-25 04:39 | -27.41101 | 151.72657 | 1336 ft | 19 kts | 292° |
| 2026-04-25 04:39 | -27.41063 | 151.72508 | 1335 ft | 18 kts | 328° |
| 2026-04-25 04:39 | -27.41034 | 151.72479 | 1333 ft | 0 kts | 349° |
| 2026-04-25 04:40 | -27.41011 | 151.72474 | 1334 ft | 11 kts | 356° |
| 2026-04-25 04:40 | -27.40935 | 151.72481 | 1337 ft | 10 kts | 60° |
| 2026-04-25 04:41 | -27.40940 | 151.72646 | 1366 ft | 44 kts | 107° |
| 2026-04-25 04:41 | -27.41018 | 151.73099 | 1457 ft | 69 kts | 98° |
| 2026-04-25 04:41 | -27.41094 | 151.73704 | 1589 ft | 83 kts | 99° |
| 2026-04-25 04:41 | -27.40967 | 151.74228 | 1880 ft | 63 kts | 35° |
| 2026-04-25 04:42 | -27.40506 | 151.74415 | 1938 ft | 83 kts | 17° |
| 2026-04-25 04:42 | -27.39886 | 151.74622 | 1969 ft | 103 kts | 15° |
| 2026-04-25 04:42 | -27.39141 | 151.74867 | 1948 ft | 119 kts | 16° |
| 2026-04-25 04:42 | -27.38320 | 151.74956 | 2006 ft | 119 kts | 352° |
| 2026-04-25 04:43 | -27.37481 | 151.74813 | 1956 ft | 124 kts | 349° |
| 2026-04-25 04:43 | -27.36637 | 151.74641 | 1972 ft | 122 kts | 349° |
| 2026-04-25 04:43 | -27.35806 | 151.74478 | 2003 ft | 121 kts | 350° |
| 2026-04-25 04:43 | -27.34983 | 151.74323 | 2026 ft | 119 kts | 350° |
| 2026-04-25 04:44 | -27.34168 | 151.74190 | 2056 ft | 117 kts | 0° |
| 2026-04-25 04:44 | -27.33588 | 151.74647 | 2115 ft | 103 kts | 74° |
| 2026-04-25 04:44 | -27.33802 | 151.75341 | 2135 ft | 99 kts | 150° |
| 2026-04-25 04:44 | -27.34419 | 151.75290 | 2160 ft | 95 kts | 225° |
| 2026-04-25 04:45 | -27.34509 | 151.74622 | 2181 ft | 93 kts | 302° |
| 2026-04-25 04:45 | -27.34111 | 151.74035 | 2174 ft | 96 kts | 289° |
| 2026-04-25 04:45 | -27.34276 | 151.73361 | 2181 ft | 96 kts | 217° |
| 2026-04-25 04:45 | -27.34906 | 151.73355 | 2188 ft | 98 kts | 144° |
| 2026-04-25 04:46 | -27.35110 | 151.74043 | 2197 ft | 99 kts | 71° |
| 2026-04-25 04:46 | -27.34592 | 151.74472 | 2216 ft | 98 kts | 358° |
| 2026-04-25 04:46 | -27.33981 | 151.74151 | 2228 ft | 101 kts | 327° |
| 2026-04-25 04:46 | -27.33362 | 151.73715 | 2248 ft | 107 kts | 328° |
| 2026-04-25 04:47 | -27.32707 | 151.73283 | 2254 ft | 111 kts | 330° |
| 2026-04-25 04:47 | -27.32022 | 151.72855 | 2282 ft | 114 kts | 331° |
| 2026-04-25 04:47 | -27.31299 | 151.72432 | 2271 ft | 112 kts | 333° |
| 2026-04-25 04:47 | -27.30688 | 151.72107 | 2284 ft | 88 kts | 342° |
| 2026-04-25 04:48 | -27.30232 | 151.72353 | 2259 ft | 74 kts | 76° |
| 2026-04-25 04:48 | -27.30444 | 151.72723 | 2288 ft | 55 kts | 187° |
| 2026-04-25 04:48 | -27.30594 | 151.72427 | 2282 ft | 48 kts | 283° |
| 2026-04-25 04:48 | -27.30554 | 151.72202 | 2290 ft | 18 kts | 307° |
| 2026-04-25 04:49 | -27.30542 | 151.72066 | 2264 ft | 17 kts | 350° |
| 2026-04-25 04:49 | -27.30495 | 151.71951 | 2250 ft | 15 kts | 44° |
| 2026-04-25 04:49 | -27.30432 | 151.71943 | 2171 ft | 10 kts | 66° |
| 2026-04-25 04:49 | -27.30381 | 151.72002 | 2161 ft | 4 kts | 68° |
| 2026-04-25 04:50 | -27.30388 | 151.71994 | 2133 ft | 2 kts | 68° |
| 2026-04-25 04:50 | -27.30403 | 151.71984 | 2107 ft | 2 kts | 68° |
| 2026-04-25 04:50 | -27.30418 | 151.71975 | 2071 ft | 2 kts | 68° |
| 2026-04-25 04:50 | -27.30430 | 151.71975 | 2040 ft | 2 kts | 68° |
| 2026-04-25 04:51 | -27.30435 | 151.72005 | 2031 ft | 10 kts | 75° |
| 2026-04-25 04:51 | -27.30449 | 151.72072 | 2005 ft | 8 kts | 84° |
| 2026-04-25 04:51 | -27.30482 | 151.72386 | 1977 ft | 75 kts | 89° |
| 2026-04-25 04:51 | -27.30510 | 151.73066 | 2090 ft | 94 kts | 91° |
| 2026-04-25 04:52 | -27.30523 | 151.73786 | 2344 ft | 88 kts | 88° |
| 2026-04-25 04:52 | -27.30523 | 151.74499 | 2460 ft | 95 kts | 90° |
| 2026-04-25 04:52 | -27.30521 | 151.75259 | 2488 ft | 99 kts | 89° |
| 2026-04-25 04:52 | -27.30512 | 151.76030 | 2464 ft | 100 kts | 88° |
| 2026-04-25 04:53 | -27.30495 | 151.76821 | 2443 ft | 102 kts | 88° |
| 2026-04-25 04:53 | -27.30471 | 151.77619 | 2406 ft | 102 kts | 87° |
| 2026-04-25 04:53 | -27.30444 | 151.78414 | 2377 ft | 101 kts | 90° |
| 2026-04-25 04:53 | -27.30847 | 151.78880 | 2415 ft | 83 kts | 182° |
| 2026-04-25 04:54 | -27.31263 | 151.78540 | 2379 ft | 75 kts | 245° |
| 2026-04-25 04:54 | -27.31243 | 151.78004 | 2380 ft | 63 kts | 284° |
| 2026-04-25 04:54 | -27.31161 | 151.77650 | 2384 ft | 23 kts | 300° |
| 2026-04-25 04:54 | -27.31106 | 151.77533 | 2327 ft | 22 kts | 302° |
| 2026-04-25 04:55 | -27.31067 | 151.77457 | 2243 ft | 5 kts | 325° |
| 2026-04-25 04:55 | -27.31071 | 151.77458 | 2153 ft | 1 kts | 330° |
| 2026-04-25 04:55 | -27.31081 | 151.77467 | 2165 ft | 2 kts | 334° |
| 2026-04-25 04:55 | -27.31080 | 151.77472 | 2178 ft | 1 kts | 332° |
| 2026-04-25 04:56 | -27.31090 | 151.77491 | 2170 ft | 3 kts | 323° |
| 2026-04-25 04:56 | -27.31089 | 151.77494 | 2165 ft | 2 kts | 33° |
| 2026-04-25 04:56 | -27.31084 | 151.77496 | 2150 ft | 3 kts | 149° |
| 2026-04-25 04:56 | -27.31071 | 151.77520 | 2126 ft | 3 kts | 155° |
| 2026-04-25 04:57 | -27.31103 | 151.77556 | 2096 ft | 11 kts | 155° |
| 2026-04-25 04:57 | -27.31200 | 151.77616 | 2138 ft | 21 kts | 155° |
| 2026-04-25 04:57 | -27.31457 | 151.77735 | 2196 ft | 67 kts | 156° |
| 2026-04-25 04:57 | -27.32018 | 151.78011 | 2236 ft | 96 kts | 149° |
| 2026-04-25 04:58 | -27.32578 | 151.78435 | 2295 ft | 95 kts | 141° |
| 2026-04-25 04:58 | -27.32640 | 151.79081 | 2334 ft | 93 kts | 54° |
| 2026-04-25 04:58 | -27.32068 | 151.79491 | 2325 ft | 104 kts | 25° |
| 2026-04-25 04:58 | -27.31376 | 151.79819 | 2320 ft | 109 kts | 19° |
| 2026-04-25 04:59 | -27.30665 | 151.80094 | 2319 ft | 107 kts | 22° |
| 2026-04-25 04:59 | -27.29972 | 151.80407 | 2312 ft | 107 kts | 25° |
| 2026-04-25 04:59 | -27.29301 | 151.80755 | 2313 ft | 106 kts | 28° |
| 2026-04-25 04:59 | -27.28665 | 151.81167 | 2329 ft | 107 kts | 50° |
| 2026-04-25 05:00 | -27.28602 | 151.81919 | 2347 ft | 101 kts | 125° |
| 2026-04-25 05:00 | -27.28869 | 151.82634 | 2404 ft | 98 kts | 98° |
| 2026-04-25 05:00 | -27.28849 | 151.83372 | 2544 ft | 92 kts | 91° |
| 2026-04-25 05:00 | -27.28534 | 151.83900 | 2696 ft | 76 kts | 39° |
| 2026-04-25 05:01 | -27.28064 | 151.83971 | 2771 ft | 69 kts | 342° |
| 2026-04-25 05:01 | -27.27580 | 151.83813 | 2766 ft | 77 kts | 348° |
| 2026-04-25 05:01 | -27.27015 | 151.83693 | 2775 ft | 87 kts | 350° |
| 2026-04-25 05:01 | -27.26415 | 151.83526 | 2822 ft | 87 kts | 324° |
| 2026-04-25 05:02 | -27.26357 | 151.82881 | 2841 ft | 96 kts | 240° |
| 2026-04-25 05:02 | -27.26910 | 151.82461 | 2800 ft | 98 kts | 192° |
| 2026-04-25 05:02 | -27.27579 | 151.82486 | 2744 ft | 95 kts | 185° |
| 2026-04-25 05:02 | -27.28214 | 151.82334 | 2730 ft | 93 kts | 199° |
| 2026-04-25 05:03 | -27.28819 | 151.82115 | 2676 ft | 91 kts | 204° |
| 2026-04-25 05:03 | -27.29393 | 151.81866 | 2735 ft | 82 kts | 204° |
| 2026-04-25 05:03 | -27.29941 | 151.81716 | 2703 ft | 88 kts | 189° |
| 2026-04-25 05:03 | -27.30580 | 151.81613 | 2608 ft | 95 kts | 191° |
| 2026-04-25 05:04 | -27.31250 | 151.81490 | 2562 ft | 104 kts | 191° |
| 2026-04-25 05:04 | -27.31991 | 151.81364 | 2540 ft | 109 kts | 190° |
| 2026-04-25 05:04 | -27.32754 | 151.81234 | 2522 ft | 112 kts | 189° |
| 2026-04-25 05:04 | -27.33519 | 151.81114 | 2522 ft | 110 kts | 190° |
| 2026-04-25 05:05 | -27.34267 | 151.80984 | 2494 ft | 107 kts | 191° |
| 2026-04-25 05:05 | -27.34999 | 151.80845 | 2463 ft | 106 kts | 190° |
| 2026-04-25 05:05 | -27.35700 | 151.80658 | 2353 ft | 102 kts | 195° |
| 2026-04-25 05:05 | -27.36382 | 151.80368 | 2214 ft | 107 kts | 202° |
| 2026-04-25 05:06 | -27.37106 | 151.80130 | 2093 ft | 107 kts | 195° |
| 2026-04-25 05:06 | -27.37717 | 151.79802 | 2070 ft | 88 kts | 214° |
| 2026-04-25 05:06 | -27.38204 | 151.79414 | 2059 ft | 86 kts | 218° |
| 2026-04-25 05:06 | -27.38673 | 151.79003 | 2066 ft | 87 kts | 220° |
| 2026-04-25 05:07 | -27.39131 | 151.78561 | 2056 ft | 87 kts | 227° |
| 2026-04-25 05:07 | -27.39529 | 151.78056 | 2016 ft | 88 kts | 233° |
| 2026-04-25 05:07 | -27.39903 | 151.77516 | 1992 ft | 88 kts | 236° |
| 2026-04-25 05:07 | -27.40241 | 151.76946 | 1957 ft | 87 kts | 241° |
| 2026-04-25 05:08 | -27.40544 | 151.76334 | 1905 ft | 89 kts | 249° |
| 2026-04-25 05:08 | -27.40479 | 151.75655 | 1842 ft | 94 kts | 305° |
| 2026-04-25 05:08 | -27.39999 | 151.75180 | 1884 ft | 89 kts | 333° |
| 2026-04-25 05:08 | -27.39475 | 151.74925 | 1932 ft | 75 kts | 346° |
| 2026-04-25 05:09 | -27.39135 | 151.74542 | 1954 ft | 70 kts | 286° |
| 2026-04-25 05:09 | -27.39243 | 151.74141 | 1881 ft | 47 kts | 240° |
| 2026-04-25 05:09 | -27.39442 | 151.73834 | 1744 ft | 43 kts | 235° |
| 2026-04-25 05:09 | -27.39641 | 151.73550 | 1640 ft | 55 kts | 235° |
| 2026-04-25 05:10 | -27.39992 | 151.73489 | 1532 ft | 54 kts | 155° |
| 2026-04-25 05:10 | -27.40263 | 151.73694 | 1395 ft | 48 kts | 152° |
| 2026-04-25 05:10 | -27.40502 | 151.73887 | 1345 ft | 38 kts | 157° |
| 2026-04-25 05:10 | -27.40671 | 151.74024 | 1343 ft | 25 kts | 161° |
| 2026-04-25 05:11 | -27.40742 | 151.74055 | 1337 ft | 5 kts | 243° |
| 2026-04-25 05:11 | -27.40782 | 151.73997 | 1336 ft | 10 kts | 251° |
| 2026-04-25 05:11 | -27.40831 | 151.73919 | 1336 ft | 10 kts | 250° |
| 2026-04-25 05:12 | -27.40839 | 151.73907 | 1338 ft | 7 kts | 250° |
| 2026-04-25 05:12 | -27.40892 | 151.73822 | 1338 ft | 17 kts | 246° |
| 2026-04-25 05:12 | -27.40958 | 151.73712 | 1337 ft | 16 kts | 243° |
| 2026-04-25 05:12 | -27.41020 | 151.73612 | 1336 ft | 17 kts | 241° |
| 2026-04-25 05:13 | -27.41106 | 151.73499 | 1342 ft | 21 kts | 236° |
| 2026-04-25 05:13 | -27.41224 | 151.73461 | 1335 ft | 14 kts | 197° |
| 2026-04-25 05:13 | -27.41266 | 151.73426 | 1337 ft | 9 kts | 288° |
| 2026-04-25 05:13 | -27.41270 | 151.73370 | 1338 ft | 7 kts | 188° |
| 2026-04-25 05:14 | -27.41290 | 151.73395 | 1336 ft | 0 kts | 100° |
| 2026-04-25 05:14 | -27.41290 | 151.73400 | 1333 ft | 0 kts | 100° |